createdAt,value
2018-12-10T00:00:22.300Z,998.94
2018-12-10T00:01:22.290Z,999.01
2018-12-10T00:02:22.293Z,999.09
2018-12-10T00:03:22.268Z,999.11
2018-12-10T00:04:22.259Z,999.04
2018-12-10T00:05:22.253Z,999.04
2018-12-10T00:06:22.236Z,999.10
2018-12-10T00:07:22.237Z,999.11
2018-12-10T00:08:22.214Z,999.13
2018-12-10T00:09:22.236Z,999.17
2018-12-10T00:10:22.191Z,999.06
2018-12-10T00:11:22.193Z,999.17
2018-12-10T00:12:22.171Z,999.10
2018-12-10T00:13:22.160Z,999.08
2018-12-10T00:14:22.147Z,999.05
2018-12-10T00:15:22.149Z,999.08
2018-12-10T00:16:22.126Z,999.10
2018-12-10T00:17:22.120Z,999.10
2018-12-10T00:18:22.104Z,999.16
2018-12-10T00:19:22.112Z,999.23
2018-12-10T00:20:22.083Z,999.15
2018-12-10T00:21:22.070Z,999.27
2018-12-10T00:22:22.059Z,999.31
2018-12-10T00:23:22.054Z,999.23
2018-12-10T00:24:22.040Z,999.21
2018-12-10T00:25:22.060Z,999.29
2018-12-10T00:26:22.019Z,999.32
2018-12-10T00:27:22.005Z,999.28
2018-12-10T00:28:21.995Z,999.34
2018-12-10T00:29:21.992Z,999.41
2018-12-10T00:30:21.972Z,999.41
2018-12-10T00:31:21.995Z,999.34
2018-12-10T00:32:21.950Z,999.41
2018-12-10T00:33:21.941Z,999.34
2018-12-10T00:34:21.927Z,999.39
2018-12-10T00:35:21.924Z,999.40
2018-12-10T00:36:21.907Z,999.44
2018-12-10T00:37:21.930Z,999.44
2018-12-10T00:38:21.885Z,999.35
2018-12-10T00:39:21.876Z,999.48
2018-12-10T00:40:21.864Z,999.39
2018-12-10T00:41:21.855Z,999.49
2018-12-10T00:42:21.840Z,999.49
2018-12-10T00:43:21.841Z,999.42
2018-12-10T00:44:21.819Z,999.52
2018-12-10T00:45:21.808Z,999.62
2018-12-10T00:46:22.657Z,999.78
2018-12-10T00:47:21.800Z,999.53
2018-12-10T00:48:21.787Z,999.63
2018-12-10T00:49:21.763Z,999.55
2018-12-10T00:50:21.751Z,999.60
2018-12-10T00:51:21.745Z,999.62
2018-12-10T00:52:21.729Z,999.72
2018-12-10T00:53:21.742Z,999.71
2018-12-10T00:54:21.709Z,999.80
2018-12-10T00:55:21.734Z,999.85
2018-12-10T00:56:21.686Z,999.84
2018-12-10T00:57:21.675Z,999.85
2018-12-10T00:58:21.663Z,999.77
2018-12-10T00:59:21.660Z,999.87
2018-12-10T01:00:21.641Z,999.73
2018-12-10T01:01:21.650Z,999.93
2018-12-10T01:02:21.624Z,999.88
2018-12-10T01:03:21.608Z,1000.00
2018-12-10T01:04:21.597Z,999.99
2018-12-10T01:05:21.593Z,999.93
2018-12-10T01:06:21.576Z,1000.00
2018-12-10T01:07:21.581Z,1000.00
2018-12-10T01:08:21.553Z,1000.03
2018-12-10T01:09:21.542Z,1000.01
2018-12-10T01:10:21.531Z,1000.11
2018-12-10T01:11:21.536Z,1000.03
2018-12-10T01:12:21.534Z,1000.07
2018-12-10T01:13:21.499Z,1000.09
2018-12-10T01:14:21.491Z,1000.04
2018-12-10T01:15:21.479Z,1000.09
2018-12-10T01:16:21.466Z,1000.08
2018-12-10T01:17:21.469Z,1000.11
2018-12-10T01:18:21.458Z,1000.15
2018-12-10T01:19:21.449Z,1000.11
2018-12-10T01:20:21.422Z,1000.12
2018-12-10T01:21:21.411Z,1000.08
2018-12-10T01:22:21.403Z,1000.10
2018-12-10T01:23:21.394Z,1000.13
2018-12-10T01:24:21.414Z,1000.22
2018-12-10T01:25:21.370Z,1000.22
2018-12-10T01:26:21.357Z,1000.28
2018-12-10T01:27:21.347Z,1000.29
2018-12-10T01:28:21.335Z,1000.26
2018-12-10T01:29:21.323Z,1000.29
2018-12-10T01:30:21.331Z,1000.21
2018-12-10T01:31:21.315Z,1000.25
2018-12-10T01:32:21.300Z,1000.34
2018-12-10T01:33:21.280Z,1000.33
2018-12-10T01:34:21.270Z,1000.35
2018-12-10T01:35:21.280Z,1000.34
2018-12-10T01:36:21.257Z,1000.43
2018-12-10T01:37:21.236Z,1000.37
2018-12-10T01:38:21.224Z,1000.40
2018-12-10T01:39:21.213Z,1000.38
2018-12-10T01:40:21.204Z,1000.46
2018-12-10T01:41:21.228Z,1000.45
2018-12-10T01:42:21.186Z,1000.40
2018-12-10T01:43:21.171Z,1000.58
2018-12-10T01:44:21.159Z,1000.45
2018-12-10T01:45:21.148Z,1000.58
2018-12-10T01:46:21.138Z,1000.53
2018-12-10T01:47:21.138Z,1000.50
2018-12-10T01:48:21.126Z,1000.47
2018-12-10T01:49:21.104Z,1000.46
2018-12-10T01:50:21.094Z,1000.50
2018-12-10T01:51:21.081Z,1000.56
2018-12-10T01:52:21.086Z,1000.64
2018-12-10T01:53:21.076Z,1000.62
2018-12-10T01:54:21.056Z,1000.64
2018-12-10T01:55:21.041Z,1000.62
2018-12-10T01:56:21.046Z,1000.69
2018-12-10T01:57:21.015Z,1000.81
2018-12-10T01:58:21.005Z,1000.70
2018-12-10T01:59:20.993Z,1000.73
2018-12-10T02:00:20.993Z,1000.73
2018-12-10T02:01:20.985Z,1000.88
2018-12-10T02:02:20.996Z,1000.75
2018-12-10T02:03:20.953Z,1000.74
2018-12-10T02:04:20.940Z,1000.73
2018-12-10T02:05:20.928Z,1000.85
2018-12-10T02:06:20.928Z,1000.77
2018-12-10T02:07:20.908Z,1000.71
2018-12-10T02:08:20.919Z,1000.83
2018-12-10T02:09:20.884Z,1000.82
2018-12-10T02:10:20.874Z,1000.84
2018-12-10T02:11:20.862Z,1000.88
2018-12-10T02:12:20.857Z,1000.93
2018-12-10T02:13:20.841Z,1000.88
2018-12-10T02:14:20.843Z,1000.94
2018-12-10T02:15:20.821Z,1000.99
2018-12-10T02:16:20.806Z,1000.97
2018-12-10T02:17:20.796Z,1000.96
2018-12-10T02:18:20.790Z,1000.95
2018-12-10T02:19:20.803Z,1000.97
2018-12-10T02:20:20.764Z,1000.98
2018-12-10T02:21:20.751Z,1000.96
2018-12-10T02:22:20.747Z,1001.01
2018-12-10T02:23:20.730Z,1000.99
2018-12-10T02:24:20.733Z,1001.04
2018-12-10T02:25:20.753Z,1001.01
2018-12-10T02:26:20.697Z,1000.94
2018-12-10T02:27:20.715Z,1000.97
2018-12-10T02:28:20.675Z,1000.99
2018-12-10T02:29:20.675Z,1000.88
2018-12-10T02:30:20.661Z,1001.00
2018-12-10T02:31:20.675Z,1000.95
2018-12-10T02:32:20.633Z,1000.93
2018-12-10T02:33:20.619Z,1001.06
2018-12-10T02:34:20.611Z,1000.97
2018-12-10T02:35:20.603Z,1001.09
2018-12-10T02:36:20.594Z,1001.09
2018-12-10T02:37:20.591Z,1001.07
2018-12-10T02:38:20.599Z,1001.15
2018-12-10T02:39:20.553Z,1001.16
2018-12-10T02:40:20.545Z,1001.22
2018-12-10T02:41:20.532Z,1001.18
2018-12-10T02:42:20.529Z,1001.23
2018-12-10T02:43:20.511Z,1001.15
2018-12-10T02:44:20.515Z,1001.17
2018-12-10T02:45:20.513Z,1001.15
2018-12-10T02:46:20.479Z,1001.19
2018-12-10T02:47:20.467Z,1001.15
2018-12-10T02:48:20.469Z,1001.25
2018-12-10T02:49:20.445Z,1001.23
2018-12-10T02:50:20.434Z,1001.12
2018-12-10T02:51:20.435Z,1001.19
2018-12-10T02:52:20.418Z,1001.18
2018-12-10T02:53:20.403Z,1001.12
2018-12-10T02:54:20.397Z,1001.14
2018-12-10T02:55:20.378Z,1001.19
2018-12-10T02:56:20.380Z,1001.17
2018-12-10T02:57:20.359Z,1001.09
2018-12-10T02:58:20.346Z,1001.28
2018-12-10T02:59:20.333Z,1001.11
2018-12-10T03:00:20.332Z,1001.18
2018-12-10T03:01:20.336Z,1001.23
2018-12-10T03:02:20.303Z,1001.27
2018-12-10T03:03:20.289Z,1001.21
2018-12-10T03:04:20.278Z,1001.29
2018-12-10T03:05:20.273Z,1001.22
2018-12-10T03:06:20.261Z,1001.29
2018-12-10T03:07:20.261Z,1001.22
2018-12-10T03:08:20.234Z,1001.35
2018-12-10T03:09:20.229Z,1001.30
2018-12-10T03:10:20.214Z,1001.30
2018-12-10T03:11:20.206Z,1001.35
2018-12-10T03:12:20.217Z,1001.21
2018-12-10T03:13:20.179Z,1001.34
2018-12-10T03:14:20.182Z,1001.36
2018-12-10T03:15:20.159Z,1001.34
2018-12-10T03:16:20.153Z,1001.30
2018-12-10T03:17:20.141Z,1001.33
2018-12-10T03:18:20.131Z,1001.37
2018-12-10T03:19:20.152Z,1001.40
2018-12-10T03:20:20.104Z,1001.48
2018-12-10T03:21:20.092Z,1001.44
2018-12-10T03:22:20.081Z,1001.40
2018-12-10T03:23:20.069Z,1001.40
2018-12-10T03:24:20.127Z,1001.35
2018-12-10T03:25:20.084Z,1001.50
2018-12-10T03:26:20.039Z,1001.38
2018-12-10T03:27:20.032Z,1001.47
2018-12-10T03:28:20.015Z,1001.53
2018-12-10T03:29:20.002Z,1001.50
2018-12-10T03:30:19.999Z,1001.62
2018-12-10T03:31:19.999Z,1001.47
2018-12-10T03:32:19.974Z,1001.46
2018-12-10T03:33:20.133Z,1001.62
2018-12-10T03:34:19.948Z,1001.66
2018-12-10T03:35:19.938Z,1001.76
2018-12-10T03:36:19.942Z,1001.73
2018-12-10T03:37:19.946Z,1001.76
2018-12-10T03:38:19.903Z,1001.73
2018-12-10T03:39:19.895Z,1001.75
2018-12-10T03:40:19.881Z,1001.73
2018-12-10T03:41:19.878Z,1001.79
2018-12-10T03:42:19.865Z,1001.80
2018-12-10T03:43:19.880Z,1001.77
2018-12-10T03:44:19.842Z,1001.80
2018-12-10T03:45:19.827Z,1001.82
2018-12-10T03:46:19.815Z,1001.77
2018-12-10T03:47:19.805Z,1001.78
2018-12-10T03:48:19.806Z,1001.82
2018-12-10T03:49:19.794Z,1001.82
2018-12-10T03:50:19.804Z,1001.88
2018-12-10T03:51:19.760Z,1001.87
2018-12-10T03:52:19.749Z,1001.83
2018-12-10T03:53:19.739Z,1001.90
2018-12-10T03:54:19.732Z,1001.87
2018-12-10T03:55:19.718Z,1001.91
2018-12-10T03:56:19.752Z,1001.87
2018-12-10T03:57:19.695Z,1002.00
2018-12-10T03:58:19.683Z,1001.95
2018-12-10T03:59:19.672Z,1001.94
2018-12-10T04:00:19.669Z,1001.99
2018-12-10T04:01:19.651Z,1001.97
2018-12-10T04:02:19.670Z,1002.03
2018-12-10T04:03:19.632Z,1001.99
2018-12-10T04:04:19.616Z,1002.08
2018-12-10T04:05:19.608Z,1002.07
2018-12-10T04:06:19.603Z,1002.16
2018-12-10T04:07:19.589Z,1002.09
2018-12-10T04:08:19.585Z,1002.20
2018-12-10T04:09:19.563Z,1002.19
2018-12-10T04:10:19.564Z,1002.12
2018-12-10T04:11:19.538Z,1002.09
2018-12-10T04:12:19.534Z,1002.14
2018-12-10T04:13:19.523Z,1002.21
2018-12-10T04:14:19.506Z,1002.23
2018-12-10T04:15:19.698Z,1002.26
2018-12-10T04:16:19.490Z,1002.28
2018-12-10T04:17:19.475Z,1002.26
2018-12-10T04:18:19.464Z,1002.30
2018-12-10T04:19:19.460Z,1002.20
2018-12-10T04:20:19.442Z,1002.27
2018-12-10T04:21:19.465Z,1002.24
2018-12-10T04:22:19.422Z,1002.29
2018-12-10T04:23:19.408Z,1002.24
2018-12-10T04:24:19.404Z,1002.24
2018-12-10T04:25:19.464Z,1002.23
2018-12-10T04:26:19.376Z,1002.30
2018-12-10T04:27:19.409Z,1002.30
2018-12-10T04:28:19.361Z,1002.26
2018-12-10T04:29:19.342Z,1002.34
2018-12-10T04:30:19.331Z,1002.28
2018-12-10T04:31:19.326Z,1002.33
2018-12-10T04:32:19.310Z,1002.32
2018-12-10T04:33:19.311Z,1002.28
2018-12-10T04:34:19.288Z,1002.26
2018-12-10T04:35:19.275Z,1002.28
2018-12-10T04:36:19.267Z,1002.26
2018-12-10T04:37:19.259Z,1002.30
2018-12-10T04:38:19.274Z,1002.26
2018-12-10T04:39:19.232Z,1002.25
2018-12-10T04:40:19.221Z,1002.19
2018-12-10T04:41:19.210Z,1002.37
2018-12-10T04:42:19.199Z,1002.37
2018-12-10T04:43:19.210Z,1002.37
2018-12-10T04:44:19.182Z,1002.47
2018-12-10T04:45:19.171Z,1002.49
2018-12-10T04:46:19.158Z,1002.49
2018-12-10T04:47:19.144Z,1002.51
2018-12-10T04:48:19.135Z,1002.49
2018-12-10T04:49:19.280Z,1002.44
2018-12-10T04:50:19.111Z,1002.48
2018-12-10T04:51:19.112Z,1002.47
2018-12-10T04:52:19.090Z,1002.45
2018-12-10T04:53:19.079Z,1002.38
2018-12-10T04:54:19.066Z,1002.51
2018-12-10T04:55:19.069Z,1002.40
2018-12-10T04:56:19.045Z,1002.49
2018-12-10T04:57:19.036Z,1002.52
2018-12-10T04:58:19.024Z,1002.54
2018-12-10T04:59:19.025Z,1002.54
2018-12-10T05:00:19.001Z,1002.55
2018-12-10T05:01:19.012Z,1002.57
2018-12-10T05:02:18.980Z,1002.57
2018-12-10T05:03:18.971Z,1002.60
2018-12-10T05:04:18.955Z,1002.63
2018-12-10T05:05:18.947Z,1002.57
2018-12-10T05:06:18.935Z,1002.62
2018-12-10T05:07:18.937Z,1002.68
2018-12-10T05:08:18.914Z,1002.70
2018-12-10T05:09:18.910Z,1002.58
2018-12-10T05:10:18.891Z,1002.57
2018-12-10T05:11:18.881Z,1002.62
2018-12-10T05:12:18.881Z,1002.60
2018-12-10T05:13:18.857Z,1002.65
2018-12-10T05:14:18.847Z,1002.62
2018-12-10T05:15:18.841Z,1002.62
2018-12-10T05:16:18.826Z,1002.67
2018-12-10T05:17:18.829Z,1002.71
2018-12-10T05:18:18.855Z,1002.78
2018-12-10T05:19:18.794Z,1002.68
2018-12-10T05:20:18.782Z,1002.71
2018-12-10T05:21:18.777Z,1002.72
2018-12-10T05:22:18.760Z,1002.60
2018-12-10T05:23:18.748Z,1002.66
2018-12-10T05:24:18.749Z,1002.77
2018-12-10T05:25:18.750Z,1002.76
2018-12-10T05:26:18.713Z,1002.77
2018-12-10T05:27:18.713Z,1002.76
2018-12-10T05:28:18.695Z,1002.75
2018-12-10T05:29:18.684Z,1002.74
2018-12-10T05:30:18.673Z,1002.76
2018-12-10T05:31:18.674Z,1002.91
2018-12-10T05:32:18.682Z,1002.78
2018-12-10T05:33:18.646Z,1002.83
2018-12-10T05:34:18.627Z,1002.84
2018-12-10T05:35:18.617Z,1002.89
2018-12-10T05:36:18.606Z,1002.78
2018-12-10T05:37:18.594Z,1002.87
2018-12-10T05:38:18.595Z,1002.85
2018-12-10T05:39:18.574Z,1002.88
2018-12-10T05:40:18.563Z,1002.83
2018-12-10T05:41:18.552Z,1002.95
2018-12-10T05:42:18.540Z,1002.91
2018-12-10T05:43:18.561Z,1002.89
2018-12-10T05:44:18.517Z,1002.97
2018-12-10T05:45:18.513Z,1003.11
2018-12-10T05:46:18.496Z,1002.91
2018-12-10T05:47:18.484Z,1002.96
2018-12-10T05:48:18.474Z,1002.99
2018-12-10T05:49:18.474Z,1003.14
2018-12-10T05:50:18.450Z,1003.07
2018-12-10T05:51:18.445Z,1003.08
2018-12-10T05:52:18.429Z,1003.07
2018-12-10T05:53:18.415Z,1003.16
2018-12-10T05:54:18.418Z,1003.23
2018-12-10T05:55:18.397Z,1003.16
2018-12-10T05:56:18.389Z,1003.20
2018-12-10T05:57:18.378Z,1003.26
2018-12-10T05:58:18.363Z,1003.27
2018-12-10T05:59:18.362Z,1003.33
2018-12-10T06:00:18.341Z,1003.28
2018-12-10T06:01:18.330Z,1003.33
2018-12-10T06:02:18.318Z,1003.33
2018-12-10T06:03:20.017Z,1003.22
2018-12-10T06:04:18.314Z,1003.35
2018-12-10T06:05:18.284Z,1003.34
2018-12-10T06:06:18.274Z,1003.32
2018-12-10T06:07:18.261Z,1003.30
2018-12-10T06:08:18.252Z,1003.30
2018-12-10T06:09:18.242Z,1003.18
2018-12-10T06:10:18.272Z,1003.39
2018-12-10T06:11:18.220Z,1003.37
2018-12-10T06:12:18.205Z,1003.36
2018-12-10T06:13:18.196Z,1003.32
2018-12-10T06:14:18.185Z,1003.28
2018-12-10T06:15:18.172Z,1003.30
2018-12-10T06:16:18.182Z,1003.36
2018-12-10T06:17:18.152Z,1003.37
2018-12-10T06:18:18.142Z,1003.41
2018-12-10T06:19:18.142Z,1003.41
2018-12-10T06:20:18.118Z,1003.40
2018-12-10T06:21:18.121Z,1003.59
2018-12-10T06:22:18.099Z,1003.47
2018-12-10T06:23:18.086Z,1003.48
2018-12-10T06:24:18.075Z,1003.42
2018-12-10T06:25:18.078Z,1003.49
2018-12-10T06:26:18.053Z,1003.59
2018-12-10T06:27:18.056Z,1003.63
2018-12-10T06:28:18.086Z,1003.57
2018-12-10T06:29:18.020Z,1003.51
2018-12-10T06:30:18.010Z,1003.59
2018-12-10T06:31:17.998Z,1003.61
2018-12-10T06:32:17.985Z,1003.54
2018-12-10T06:33:17.976Z,1003.62
2018-12-10T06:34:17.989Z,1003.68
2018-12-10T06:35:17.955Z,1003.65
2018-12-10T06:36:17.941Z,1003.72
2018-12-10T06:37:17.930Z,1003.73
2018-12-10T06:38:17.922Z,1003.70
2018-12-10T06:39:17.920Z,1003.78
2018-12-10T06:40:17.910Z,1003.78
2018-12-10T06:41:17.888Z,1003.89
2018-12-10T06:42:17.876Z,1003.82
2018-12-10T06:43:17.866Z,1003.87
2018-12-10T06:44:17.888Z,1004.01
2018-12-10T06:45:17.844Z,1004.03
2018-12-10T06:46:17.834Z,1003.90
2018-12-10T06:47:17.824Z,1003.88
2018-12-10T06:48:17.810Z,1003.97
2018-12-10T06:49:17.797Z,1003.94
2018-12-10T06:50:17.823Z,1003.96
2018-12-10T06:51:17.778Z,1003.98
2018-12-10T06:52:17.765Z,1003.96
2018-12-10T06:53:17.764Z,1004.00
2018-12-10T06:54:17.745Z,1003.96
2018-12-10T06:55:17.732Z,1003.90
2018-12-10T06:56:17.757Z,1003.95
2018-12-10T06:57:17.716Z,1003.93
2018-12-10T06:58:17.699Z,1004.00
2018-12-10T06:59:17.696Z,1003.97
2018-12-10T07:00:17.680Z,1003.97
2018-12-10T07:01:17.666Z,1004.10
2018-12-10T07:02:17.690Z,1004.10
2018-12-10T07:03:17.645Z,1004.05
2018-12-10T07:04:17.634Z,1004.07
2018-12-10T07:05:17.626Z,1004.09
2018-12-10T07:06:17.612Z,1004.04
2018-12-10T07:07:17.603Z,1004.03
2018-12-10T07:08:17.630Z,1003.97
2018-12-10T07:09:17.580Z,1004.01
2018-12-10T07:10:17.569Z,1004.07
2018-12-10T07:11:17.568Z,1004.08
2018-12-10T07:12:17.549Z,1004.09
2018-12-10T07:13:17.536Z,1004.04
2018-12-10T07:14:17.556Z,1004.10
2018-12-10T07:15:17.514Z,1004.14
2018-12-10T07:16:17.506Z,1004.07
2018-12-10T07:17:17.497Z,1004.12
2018-12-10T07:18:17.482Z,1004.00
2018-12-10T07:19:17.470Z,1004.02
2018-12-10T07:20:17.471Z,1004.05
2018-12-10T07:21:17.448Z,1004.09
2018-12-10T07:22:17.435Z,1004.05
2018-12-10T07:23:17.433Z,1004.09
2018-12-10T07:24:17.428Z,1004.11
2018-12-10T07:25:17.419Z,1004.13
2018-12-10T07:26:17.393Z,1004.07
2018-12-10T07:27:17.381Z,1004.18
2018-12-10T07:28:17.371Z,1004.15
2018-12-10T07:29:17.382Z,1004.16
2018-12-10T07:30:17.362Z,1004.19
2018-12-10T07:31:17.339Z,1004.31
2018-12-10T07:32:17.329Z,1004.15
2018-12-10T07:33:17.316Z,1004.33
2018-12-10T07:34:17.325Z,1004.35
2018-12-10T07:35:17.298Z,1004.27
2018-12-10T07:36:17.283Z,1004.30
2018-12-10T07:37:17.270Z,1004.35
2018-12-10T07:38:17.263Z,1004.28
2018-12-10T07:39:17.248Z,1004.25
2018-12-10T07:40:17.270Z,1004.37
2018-12-10T07:41:17.238Z,1004.27
2018-12-10T07:42:17.215Z,1004.28
2018-12-10T07:43:17.205Z,1004.32
2018-12-10T07:44:17.195Z,1004.32
2018-12-10T07:45:17.184Z,1004.34
2018-12-10T07:46:17.206Z,1004.38
2018-12-10T07:47:17.166Z,1004.41
2018-12-10T07:48:17.152Z,1004.45
2018-12-10T07:49:17.142Z,1004.43
2018-12-10T07:50:17.142Z,1004.47
2018-12-10T07:51:17.122Z,1004.47
2018-12-10T07:52:17.120Z,1004.43
2018-12-10T07:53:17.116Z,1004.44
2018-12-10T07:54:17.085Z,1004.42
2018-12-10T07:55:17.074Z,1004.37
2018-12-10T07:56:17.062Z,1004.43
2018-12-10T07:57:17.089Z,1004.39
2018-12-10T07:58:17.040Z,1004.42
2018-12-10T07:59:17.036Z,1004.50
2018-12-10T08:00:17.019Z,1004.44
2018-12-10T08:01:17.009Z,1004.46
2018-12-10T08:02:17.000Z,1004.44
2018-12-10T08:03:17.007Z,1004.52
2018-12-10T08:04:16.976Z,1004.58
2018-12-10T08:05:16.967Z,1004.57
2018-12-10T08:06:16.963Z,1004.61
2018-12-10T08:07:16.943Z,1004.57
2018-12-10T08:08:16.930Z,1004.62
2018-12-10T08:09:16.954Z,1004.63
2018-12-10T08:10:16.908Z,1004.58
2018-12-10T08:11:16.899Z,1004.65
2018-12-10T08:12:16.896Z,1004.69
2018-12-10T08:13:16.877Z,1004.59
2018-12-10T08:14:16.866Z,1004.67
2018-12-10T08:15:16.899Z,1004.69
2018-12-10T08:16:16.848Z,1004.75
2018-12-10T08:17:16.832Z,1004.75
2018-12-10T08:18:16.830Z,1004.71
2018-12-10T08:19:16.812Z,1004.73
2018-12-10T08:20:16.800Z,1004.65
2018-12-10T08:21:16.803Z,1004.68
2018-12-10T08:22:16.791Z,1004.67
2018-12-10T08:23:16.766Z,1004.82
2018-12-10T08:24:16.760Z,1004.76
2018-12-10T08:25:16.745Z,1004.73
2018-12-10T08:26:16.732Z,1004.77
2018-12-10T08:27:16.769Z,1004.79
2018-12-10T08:28:16.712Z,1004.89
2018-12-10T08:29:16.701Z,1004.77
2018-12-10T08:30:16.696Z,1004.89
2018-12-10T08:31:16.685Z,1004.87
2018-12-10T08:32:16.668Z,1004.87
2018-12-10T08:33:16.690Z,1004.85
2018-12-10T08:34:16.646Z,1004.80
2018-12-10T08:35:16.633Z,1004.79
2018-12-10T08:36:16.624Z,1004.83
2018-12-10T08:37:16.616Z,1004.91
2018-12-10T08:38:16.606Z,1004.91
2018-12-10T08:39:16.639Z,1004.92
2018-12-10T08:40:16.628Z,1004.91
2018-12-10T08:41:16.568Z,1004.85
2018-12-10T08:42:16.558Z,1004.88
2018-12-10T08:43:16.546Z,1004.88
2018-12-10T08:44:16.536Z,1004.94
2018-12-10T08:45:16.546Z,1004.93
2018-12-10T08:46:16.515Z,1004.94
2018-12-10T08:47:16.529Z,1005.01
2018-12-10T08:48:16.492Z,1004.97
2018-12-10T08:49:16.481Z,1005.00
2018-12-10T08:50:16.483Z,1005.05
2018-12-10T08:51:16.507Z,1004.99
2018-12-10T08:52:16.458Z,1004.97
2018-12-10T08:53:16.436Z,1005.00
2018-12-10T08:54:16.426Z,1005.02
2018-12-10T08:55:16.427Z,1005.07
2018-12-10T08:56:16.426Z,1005.06
2018-12-10T08:57:16.402Z,1005.05
2018-12-10T08:58:16.392Z,1005.12
2018-12-10T08:59:16.369Z,1005.20
2018-12-10T09:00:16.361Z,1005.12
2018-12-10T09:01:16.349Z,1005.18
2018-12-10T09:02:16.357Z,1005.15
2018-12-10T09:03:16.334Z,1005.09
2018-12-10T09:04:16.317Z,1005.11
2018-12-10T09:05:16.303Z,1005.16
2018-12-10T09:06:16.293Z,1005.06
2018-12-10T09:07:16.283Z,1005.07
2018-12-10T09:08:16.285Z,1005.06
2018-12-10T09:09:16.268Z,1005.10
2018-12-10T09:10:16.250Z,1005.07
2018-12-10T09:11:16.242Z,1005.14
2018-12-10T09:12:16.226Z,1005.18
2018-12-10T09:13:16.251Z,1005.05
2018-12-10T09:14:16.205Z,1005.08
2018-12-10T09:15:16.204Z,1005.12
2018-12-10T09:16:16.183Z,1005.08
2018-12-10T09:17:16.171Z,1005.19
2018-12-10T09:18:16.159Z,1005.21
2018-12-10T09:19:16.218Z,1005.22
2018-12-10T09:20:16.140Z,1005.18
2018-12-10T09:21:16.137Z,1005.11
2018-12-10T09:22:16.118Z,1005.17
2018-12-10T09:23:16.104Z,1005.21
2018-12-10T09:24:16.094Z,1005.22
2018-12-10T09:25:16.118Z,1005.24
2018-12-10T09:26:16.073Z,1005.20
2018-12-10T09:27:16.074Z,1005.21
2018-12-10T09:28:19.635Z,1005.17
2018-12-10T09:29:16.041Z,1005.26
2018-12-10T09:30:16.029Z,1005.30
2018-12-10T09:31:16.029Z,1005.20
2018-12-10T09:32:16.004Z,1005.28
2018-12-10T09:33:16.000Z,1005.20
2018-12-10T09:34:16.011Z,1005.29
2018-12-10T09:35:15.974Z,1005.34
2018-12-10T09:36:15.962Z,1005.25
2018-12-10T09:37:15.951Z,1005.19
2018-12-10T09:38:15.940Z,1005.22
2018-12-10T09:39:15.929Z,1005.27
2018-12-10T09:40:15.958Z,1005.27
2018-12-10T09:41:15.908Z,1005.33
2018-12-10T09:42:15.894Z,1005.30
2018-12-10T09:43:15.885Z,1005.29
2018-12-10T09:44:15.875Z,1005.33
2018-12-10T09:45:15.863Z,1005.34
2018-12-10T09:46:15.905Z,1005.37
2018-12-10T09:47:15.841Z,1005.37
2018-12-10T09:48:15.829Z,1005.30
2018-12-10T09:49:15.819Z,1005.18
2018-12-10T09:50:15.809Z,1005.22
2018-12-10T09:51:15.797Z,1005.24
2018-12-10T09:52:15.804Z,1005.28
2018-12-10T09:53:15.776Z,1005.24
2018-12-10T09:54:15.765Z,1005.19
2018-12-10T09:55:15.753Z,1005.11
2018-12-10T09:56:15.743Z,1005.24
2018-12-10T09:57:15.756Z,1005.23
2018-12-10T09:58:15.725Z,1005.20
2018-12-10T09:59:15.710Z,1005.21
2018-12-10T10:00:15.697Z,1005.16
2018-12-10T10:01:15.688Z,1005.17
2018-12-10T10:02:15.679Z,1005.16
2018-12-10T10:03:15.682Z,1005.17
2018-12-10T10:04:15.661Z,1005.18
2018-12-10T10:05:15.729Z,1005.28
2018-12-10T10:06:15.634Z,1005.24
2018-12-10T10:07:15.639Z,1005.06
2018-12-10T10:08:15.625Z,1005.18
2018-12-10T10:09:15.601Z,1005.30
2018-12-10T10:10:15.594Z,1005.25
2018-12-10T10:11:15.583Z,1005.28
2018-12-10T10:12:15.568Z,1005.27
2018-12-10T10:13:15.571Z,1005.29
2018-12-10T10:14:15.545Z,1005.33
2018-12-10T10:15:15.549Z,1005.26
2018-12-10T10:16:15.527Z,1005.15
2018-12-10T10:17:15.518Z,1005.28
2018-12-10T10:18:15.504Z,1005.19
2018-12-10T10:19:15.495Z,1005.25
2018-12-10T10:20:15.523Z,1005.34
2018-12-10T10:21:15.473Z,1005.23
2018-12-10T10:22:15.458Z,1005.28
2018-12-10T10:23:15.446Z,1005.23
2018-12-10T10:24:15.440Z,1005.17
2018-12-10T10:25:15.426Z,1005.25
2018-12-10T10:26:15.435Z,1005.25
2018-12-10T10:27:15.423Z,1005.25
2018-12-10T10:28:15.393Z,1005.14
2018-12-10T10:29:15.381Z,1005.18
2018-12-10T10:30:15.371Z,1005.24
2018-12-10T10:31:15.361Z,1005.17
2018-12-10T10:32:15.398Z,1005.17
2018-12-10T10:33:15.341Z,1005.18
2018-12-10T10:34:15.333Z,1005.13
2018-12-10T10:35:15.314Z,1005.21
2018-12-10T10:36:15.304Z,1005.29
2018-12-10T10:37:15.294Z,1005.20
2018-12-10T10:38:15.316Z,1005.12
2018-12-10T10:39:15.271Z,1005.14
2018-12-10T10:40:15.270Z,1005.13
2018-12-10T10:41:15.249Z,1005.21
2018-12-10T10:42:15.239Z,1005.14
2018-12-10T10:43:15.228Z,1005.09
2018-12-10T10:44:15.229Z,1005.17
2018-12-10T10:45:15.206Z,1005.14
2018-12-10T10:46:15.209Z,1005.10
2018-12-10T10:47:15.185Z,1005.27
2018-12-10T10:48:15.211Z,1005.25
2018-12-10T10:49:15.166Z,1005.15
2018-12-10T10:50:15.151Z,1005.14
2018-12-10T10:51:15.138Z,1005.12
2018-12-10T10:52:15.128Z,1005.20
2018-12-10T10:53:15.118Z,1005.15
2018-12-10T10:54:15.131Z,1005.29
2018-12-10T10:55:15.100Z,1005.13
2018-12-10T10:56:15.084Z,1005.15
2018-12-10T10:57:15.144Z,1005.29
2018-12-10T10:58:15.081Z,1005.18
2018-12-10T10:59:15.068Z,1005.16
2018-12-10T11:00:15.073Z,1005.16
2018-12-10T11:01:15.031Z,1005.11
2018-12-10T11:02:15.031Z,1005.07
2018-12-10T11:03:15.010Z,1005.06
2018-12-10T11:04:15.000Z,1004.98
2018-12-10T11:05:14.990Z,1005.03
2018-12-10T11:06:14.993Z,1005.00
2018-12-10T11:07:14.964Z,1005.02
2018-12-10T11:08:14.971Z,1004.97
2018-12-10T11:09:15.714Z,1004.99
2018-12-10T11:10:14.930Z,1004.99
2018-12-10T11:11:14.927Z,1005.01
2018-12-10T11:12:14.910Z,1005.01
2018-12-10T11:13:14.934Z,1005.02
2018-12-10T11:14:14.888Z,1005.11
2018-12-10T11:15:14.874Z,1004.92
2018-12-10T11:16:14.873Z,1005.05
2018-12-10T11:17:14.853Z,1004.98
2018-12-10T11:18:14.846Z,1005.00
2018-12-10T11:19:14.876Z,1004.99
2018-12-10T11:20:14.824Z,1004.99
2018-12-10T11:21:14.812Z,1004.94
2018-12-10T11:22:14.803Z,1004.99
2018-12-10T11:23:14.789Z,1005.00
2018-12-10T11:24:14.777Z,1005.00
2018-12-10T11:25:14.817Z,1005.02
2018-12-10T11:26:14.756Z,1005.10
2018-12-10T11:27:14.746Z,1004.99
2018-12-10T11:28:14.738Z,1004.98
2018-12-10T11:29:14.724Z,1005.01
2018-12-10T11:30:14.714Z,1005.14
2018-12-10T11:31:17.286Z,1004.91
2018-12-10T11:32:14.688Z,1005.09
2018-12-10T11:33:14.679Z,1005.41
2018-12-10T11:34:14.666Z,1005.01
2018-12-10T11:35:14.656Z,1005.00
2018-12-10T11:36:14.678Z,1005.06
2018-12-10T11:37:14.638Z,1005.04
2018-12-10T11:38:14.623Z,1005.13
2018-12-10T11:39:14.611Z,1005.16
2018-12-10T11:40:14.601Z,1005.10
2018-12-10T11:41:14.590Z,1005.13
2018-12-10T11:42:14.592Z,1005.06
2018-12-10T11:43:14.588Z,1005.09
2018-12-10T11:44:14.555Z,1005.03
2018-12-10T11:45:14.545Z,1005.29
2018-12-10T11:46:14.534Z,1005.13
2018-12-10T11:47:14.523Z,1005.08
2018-12-10T11:48:14.545Z,1005.13
2018-12-10T11:49:14.507Z,1004.99
2018-12-10T11:50:14.555Z,1004.96
2018-12-10T11:51:14.481Z,1005.02
2018-12-10T11:52:14.468Z,1005.02
2018-12-10T11:53:14.456Z,1005.05
2018-12-10T11:54:14.474Z,1005.02
2018-12-10T11:55:14.436Z,1004.99
2018-12-10T11:56:14.439Z,1005.22
2018-12-10T11:57:14.414Z,1005.00
2018-12-10T11:58:14.403Z,1004.94
2018-12-10T11:59:14.412Z,1004.94
2018-12-10T12:00:14.408Z,1004.86
2018-12-10T12:01:14.370Z,1004.93
2018-12-10T12:02:14.362Z,1004.94
2018-12-10T12:03:14.359Z,1004.99
2018-12-10T12:04:14.344Z,1004.98
2018-12-10T12:05:14.358Z,1004.90
2018-12-10T12:06:14.325Z,1004.90
2018-12-10T12:07:14.316Z,1004.82